Time;durP1;ratioP1;P1;durP2;ratioP2;P2;SDS_P1;SDS_P2;PMS_P1;PMS_P2;Temp;Humidity;BMP_temperature;BMP_pressure;BME280_temperature;BME280_humidity;BME280_pressure;Samples;Min_cycle;Max_cycle;Signal;HPM_P1;HPM_P2
2023/08/05 00:02:12;;;;;;;5.85;2.90;;;;;;;21.78;84.43;98948.19;4482080;31;34433;-73
2023/08/05 00:04:40;;;;;;;5.15;2.72;;;;;;;21.80;85.20;98933.22;4482010;32;33735;-75
2023/08/05 00:07:09;;;;;;;5.35;2.25;;;;;;;21.58;86.47;98961.66;4477304;31;33300;-73
2023/08/05 00:09:37;;;;;;;5.32;2.70;;;;;;;21.72;85.50;98983.41;4488781;31;33885;-74
2023/08/05 00:12:05;;;;;;;4.75;2.40;;;;;;;21.94;84.78;98978.72;4485826;31;33934;-72
2023/08/05 00:14:35;;;;;;;4.50;2.50;;;;;;;21.60;87.03;98973.06;4486647;31;34854;-73
2023/08/05 00:17:03;;;;;;;5.60;2.50;;;;;;;22.05;84.63;98939.00;4489060;31;33313;-74
2023/08/05 00:19:31;;;;;;;4.97;2.37;;;;;;;22.42;82.28;98933.16;4485067;31;33549;-74
2023/08/05 00:21:58;;;;;;;4.62;1.98;;;;;;;22.19;82.77;98907.12;4487277;31;33687;-73
2023/08/05 00:24:26;;;;;;;4.62;1.83;;;;;;;22.46;81.22;98915.50;4484814;31;33595;-74
2023/08/05 00:26:54;;;;;;;3.97;1.80;;;;;;;22.47;81.27;98931.31;4488724;31;33788;-73
2023/08/05 00:29:22;;;;;;;4.05;1.58;;;;;;;22.50;80.84;98940.94;4475282;31;33345;-73
2023/08/05 00:31:50;;;;;;;3.45;1.50;;;;;;;22.54;80.82;98948.78;4489345;31;34420;-73
2023/08/05 00:34:17;;;;;;;2.60;1.40;;;;;;;22.41;80.96;98935.81;4493670;31;34376;-74
2023/08/05 00:36:45;;;;;;;3.00;1.50;;;;;;;22.33;81.53;98928.91;4493028;31;34115;-74
2023/08/05 00:39:13;;;;;;;4.62;1.55;;;;;;;22.38;81.13;98923.53;4487059;31;33962;-73
2023/08/05 00:41:41;;;;;;;3.75;1.73;;;;;;;22.37;81.35;98887.53;4490107;31;33685;-73
2023/08/05 00:44:08;;;;;;;3.95;2.10;;;;;;;22.46;80.93;98855.66;4488983;31;33282;-75
2023/08/05 00:46:36;;;;;;;5.62;2.30;;;;;;;22.39;81.37;98859.34;4492935;31;33977;-74
2023/08/05 00:49:04;;;;;;;4.27;2.40;;;;;;;22.36;81.71;98899.81;4478139;31;33800;-73
2023/08/05 00:51:32;;;;;;;4.90;2.37;;;;;;;22.12;83.76;98860.66;4497083;31;33491;-73
2023/08/05 00:53:59;;;;;;;4.57;2.78;;;;;;;22.58;81.17;98754.31;4492055;31;33939;-74
2023/08/05 00:56:27;;;;;;;5.95;2.85;;;;;;;22.62;80.88;98708.47;4490707;31;33769;-74
2023/08/05 00:58:55;;;;;;;5.37;3.17;;;;;;;22.65;80.55;98681.13;4481695;31;34530;-73
2023/08/05 01:01:22;;;;;;;4.67;3.00;;;;;;;22.75;80.06;98709.03;4478761;31;33678;-74
2023/08/05 01:03:50;;;;;;;5.43;3.17;;;;;;;22.65;80.74;98781.44;4489692;31;34065;-72
2023/08/05 01:06:18;;;;;;;4.90;3.10;;;;;;;22.78;80.12;98819.87;4474144;31;33488;-74
2023/08/05 01:08:46;;;;;;;4.78;3.50;;;;;;;22.76;80.46;98829.59;4493507;31;33400;-74
2023/08/05 01:11:14;;;;;;;5.85;3.67;;;;;;;22.73;81.41;98821.72;4468069;31;33068;-74
2023/08/05 01:13:42;;;;;;;5.55;3.80;;;;;;;22.58;82.50;98797.37;4476989;32;33461;-73
2023/08/05 01:16:09;;;;;;;6.57;4.30;;;;;;;22.68;82.65;98786.66;4488321;31;33395;-73
2023/08/05 01:18:38;;;;;;;6.87;4.18;;;;;;;22.49;83.70;98770.31;4491447;31;33700;-73
2023/08/05 01:21:18;;;;;;;7.50;5.35;;;;;;;22.82;82.51;98779.31;4489662;31;34508;-74
2023/08/05 01:24:05;;;;;;;8.07;5.20;;;;;;;22.72;83.61;98788.31;4493371;31;33053;-73
2023/08/05 01:26:33;;;;;;;7.62;5.93;;;;;;;22.96;82.67;98769.28;4490219;31;33358;-74
2023/08/05 01:29:03;;;;;;;6.97;5.37;;;;;;;23.21;81.29;98770.56;4487921;31;33809;-73
2023/08/05 01:31:32;;;;;;;7.03;4.65;;;;;;;23.27;81.07;98781.84;4477499;31;33995;-74
2023/08/05 01:34:00;;;;;;;5.47;3.70;;;;;;;23.04;82.03;98823.75;4492176;31;33755;-74
2023/08/05 01:36:29;;;;;;;5.00;3.35;;;;;;;23.50;78.61;98912.59;4488313;31;32952;-74
2023/08/05 01:38:57;;;;;;;5.85;3.50;;;;;;;23.43;78.16;98888.09;4488963;31;33818;-73
2023/08/05 01:41:24;;;;;;;6.97;3.87;;;;;;;23.39;78.27;98822.97;4488064;31;33937;-75
2023/08/05 01:43:52;;;;;;;7.85;3.75;;;;;;;23.60;77.46;98783.72;4474091;32;33912;-75
2023/08/05 01:46:20;;;;;;;6.80;4.03;;;;;;;23.39;78.55;98814.19;4487126;31;33168;-74
2023/08/05 01:48:47;;;;;;;5.53;3.80;;;;;;;23.27;79.33;98829.41;4491442;31;33603;-73
2023/08/05 01:51:15;;;;;;;5.95;3.95;;;;;;;23.22;79.81;98781.09;4493045;31;33803;-76
2023/08/05 01:53:43;;;;;;;6.40;4.03;;;;;;;23.11;80.32;98756.69;4489460;31;34672;-74
2023/08/05 01:56:10;;;;;;;6.32;4.47;;;;;;;22.90;81.88;98760.66;4489041;31;33505;-73
2023/08/05 01:58:38;;;;;;;6.67;4.60;;;;;;;22.96;82.03;98750.81;4487911;31;33617;-75
2023/08/05 02:01:05;;;;;;;6.50;4.28;;;;;;;22.97;82.05;98747.28;4491641;31;33911;-73
2023/08/05 02:03:33;;;;;;;6.95;4.90;;;;;;;23.11;81.52;98722.34;4487694;31;33734;-74
2023/08/05 02:06:02;;;;;;;7.00;5.10;;;;;;;23.26;80.56;98715.84;4465491;31;781972;-73
2023/08/05 02:08:29;;;;;;;7.32;5.20;;;;;;;22.88;82.73;98749.25;4490116;31;33656;-74
2023/08/05 02:10:57;;;;;;;7.22;5.22;;;;;;;22.77;83.40;98734.53;4495957;31;33733;-74
2023/08/05 02:13:24;;;;;;;8.95;5.60;;;;;;;23.15;81.79;98708.16;4486106;31;33891;-74
2023/08/05 02:15:52;;;;;;;7.18;5.20;;;;;;;23.17;81.63;98682.59;4488628;31;34025;-74
2023/08/05 02:18:20;;;;;;;7.37;5.60;;;;;;;23.25;80.88;98677.97;4490058;31;33618;-74
2023/08/05 02:20:47;;;;;;;7.43;5.20;;;;;;;23.29;80.34;98676.97;4488688;31;34060;-74
2023/08/05 02:23:15;;;;;;;6.90;5.50;;;;;;;23.01;82.17;98668.84;4493612;31;35663;-74
2023/08/05 02:25:42;;;;;;;7.85;5.82;;;;;;;23.14;82.03;98680.00;4487087;31;33434;-74
2023/08/05 02:28:12;;;;;;;8.13;5.87;;;;;;;23.28;80.97;98677.06;4483831;31;34326;-74
2023/08/05 02:30:40;;;;;;;7.70;5.80;;;;;;;23.08;81.77;98674.87;4490479;31;34356;-73
2023/08/05 02:33:07;;;;;;;7.53;5.40;;;;;;;23.26;80.77;98684.16;4490749;31;33671;-74
2023/08/05 02:35:35;;;;;;;8.52;5.72;;;;;;;23.05;81.88;98690.81;4484749;31;33321;-73
2023/08/05 02:38:02;;;;;;;7.90;5.53;;;;;;;23.14;81.46;98685.28;4486135;31;33455;-73
2023/08/05 02:40:33;;;;;;;7.62;5.87;;;;;;;23.07;81.91;98674.00;4489847;31;33865;-74
2023/08/05 02:43:00;;;;;;;7.57;5.60;;;;;;;23.40;80.29;98675.87;4475387;31;34214;-74
2023/08/05 02:45:28;;;;;;;8.57;5.60;;;;;;;23.18;81.35;98692.25;4490993;31;33404;-74
2023/08/05 02:47:56;;;;;;;9.77;5.82;;;;;;;23.02;82.42;98717.25;4492847;31;33944;-74
2023/08/05 02:50:23;;;;;;;7.25;5.82;;;;;;;23.57;79.93;98705.37;4492015;31;33512;-73
2023/08/05 02:52:51;;;;;;;8.00;5.07;;;;;;;23.10;82.20;98696.84;4489092;31;33653;-73
2023/08/05 02:55:18;;;;;;;7.33;5.03;;;;;;;23.54;79.00;98668.44;4493711;31;32894;-74
2023/08/05 02:57:46;;;;;;;7.53;5.43;;;;;;;23.11;81.72;98701.22;4494688;31;34501;-74
2023/08/05 03:00:14;;;;;;;7.90;5.10;;;;;;;22.86;83.16;98744.00;4484794;31;34117;-73
2023/08/05 03:02:41;;;;;;;7.47;5.53;;;;;;;23.20;82.00;98790.84;4493841;31;33815;-73
2023/08/05 03:05:09;;;;;;;8.15;5.55;;;;;;;23.73;78.93;98832.75;4489385;31;33129;-73
2023/08/05 03:07:36;;;;;;;7.62;4.78;;;;;;;23.75;78.24;98845.03;4489404;31;33832;-74
2023/08/05 03:10:05;;;;;;;7.82;5.10;;;;;;;23.41;78.79;98820.28;4490009;31;34585;-74
2023/08/05 03:12:32;;;;;;;7.25;4.57;;;;;;;23.08;80.30;98775.25;4489856;31;33761;-74
2023/08/05 03:14:59;;;;;;;7.78;4.75;;;;;;;23.64;77.35;98748.38;4490239;31;33001;-73
2023/08/05 03:17:27;;;;;;;7.15;4.55;;;;;;;23.31;78.79;98741.25;4486101;31;34362;-73
2023/08/05 03:19:55;;;;;;;6.53;4.60;;;;;;;23.05;80.80;98775.34;4493121;31;33485;-74
2023/08/05 03:22:23;;;;;;;9.25;4.82;;;;;;;22.92;81.64;98786.09;4486734;31;33743;-73
2023/08/05 03:24:50;;;;;;;7.43;4.72;;;;;;;22.99;81.89;98783.38;4489538;31;33158;-74
2023/08/05 03:27:18;;;;;;;8.40;4.53;;;;;;;23.04;81.77;98831.69;4485930;31;33644;-73
2023/08/05 03:29:46;;;;;;;7.07;4.50;;;;;;;23.10;81.01;98885.28;4483549;31;34466;-73
2023/08/05 03:32:14;;;;;;;7.60;4.87;;;;;;;23.46;79.31;98889.78;4493034;31;34561;-74
2023/08/05 03:34:42;;;;;;;6.18;4.20;;;;;;;23.77;77.49;98891.72;4495369;31;34189;-74
2023/08/05 03:37:10;;;;;;;7.07;4.25;;;;;;;23.80;76.46;98871.41;4486137;31;34292;-74
2023/08/05 03:39:37;;;;;;;8.45;4.75;;;;;;;23.53;77.86;98810.31;4494412;31;33880;-73
2023/08/05 03:42:05;;;;;;;7.40;4.53;;;;;;;23.30;78.83;98768.56;4484704;31;33798;-74
2023/08/05 03:44:33;;;;;;;6.78;4.65;;;;;;;23.03;79.91;98746.31;4487783;31;33251;-74
2023/08/05 03:47:00;;;;;;;8.35;4.80;;;;;;;23.14;79.68;98759.25;4494938;31;33906;-73
2023/08/05 03:49:29;;;;;;;8.18;5.20;;;;;;;22.80;81.50;98759.97;4493570;31;34266;-74
2023/08/05 03:51:56;;;;;;;7.53;4.80;;;;;;;22.88;81.34;98760.69;4486914;31;34646;-73
2023/08/05 03:54:24;;;;;;;8.13;4.72;;;;;;;23.00;81.03;98766.59;4487913;31;33208;-74
2023/08/05 03:56:52;;;;;;;8.32;5.05;;;;;;;23.01;80.92;98769.22;4492521;31;34506;-74
2023/08/05 03:59:20;;;;;;;6.63;4.90;;;;;;;22.77;82.52;98771.50;4489361;31;34535;-74
2023/08/05 04:01:48;;;;;;;8.40;5.10;;;;;;;22.98;81.54;98758.69;4487189;31;33841;-74
2023/08/05 04:04:17;;;;;;;6.57;4.37;;;;;;;23.34;79.46;98751.72;4488406;31;34002;-73
2023/08/05 04:06:45;;;;;;;7.10;4.60;;;;;;;23.20;80.20;98748.56;4490788;31;33802;-74
2023/08/05 04:09:14;;;;;;;6.43;4.78;;;;;;;23.24;80.23;98738.81;4486204;31;33563;-74
2023/08/05 04:11:43;;;;;;;8.25;5.40;;;;;;;23.41;79.15;98746.28;4492316;31;33864;-73
2023/08/05 04:14:11;;;;;;;7.85;5.05;;;;;;;23.23;80.45;98759.03;4484380;31;33502;-73
2023/08/05 04:16:40;;;;;;;6.95;4.70;;;;;;;22.99;81.98;98764.88;4485729;31;33377;-74
2023/08/05 04:19:08;;;;;;;7.57;4.90;;;;;;;23.17;81.73;98770.62;4488056;31;33524;-73
2023/08/05 04:21:40;;;;;;;7.93;4.97;;;;;;;23.02;82.24;98776.22;4484092;31;33905;-74
2023/08/05 04:24:09;;;;;;;7.05;4.60;;;;;;;23.17;81.57;98780.31;4485077;31;33880;-73
2023/08/05 04:26:37;;;;;;;7.55;4.47;;;;;;;23.52;79.60;98791.84;4487438;31;34304;-73
2023/08/05 04:29:04;;;;;;;8.43;4.45;;;;;;;23.80;77.97;98792.06;4488320;31;33926;-74
2023/08/05 04:31:32;;;;;;;6.22;3.95;;;;;;;23.60;78.26;98789.87;4489169;31;34330;-73
2023/08/05 04:34:00;;;;;;;8.00;4.45;;;;;;;23.92;76.62;98790.91;4487099;31;33849;-73
2023/08/05 04:36:27;;;;;;;7.00;4.15;;;;;;;23.46;78.98;98797.28;4492925;31;33750;-75
2023/08/05 04:38:57;;;;;;;7.22;3.83;;;;;;;23.52;78.94;98802.41;4489911;31;33727;-74
2023/08/05 04:41:24;;;;;;;6.50;3.67;;;;;;;23.95;76.71;98806.66;4489346;31;34208;-74
2023/08/05 04:43:52;;;;;;;6.15;3.78;;;;;;;23.73;77.52;98801.88;4487653;31;33273;-74
2023/08/05 04:46:19;;;;;;;6.05;3.92;;;;;;;23.65;77.51;98793.28;4487949;31;33762;-74
2023/08/05 04:48:47;;;;;;;6.12;3.65;;;;;;;23.56;77.84;98777.66;4482912;31;33769;-73
2023/08/05 04:51:14;;;;;;;6.20;3.90;;;;;;;23.34;79.04;98767.59;4482502;31;33591;-73
2023/08/05 04:53:43;;;;;;;7.47;3.85;;;;;;;23.25;79.82;98757.22;4487752;31;33283;-73
2023/08/05 04:56:11;;;;;;;6.87;3.83;;;;;;;23.15;80.71;98747.78;4482324;31;33766;-74
2023/08/05 04:58:39;;;;;;;8.63;3.78;;;;;;;23.01;81.77;98741.94;4489511;31;34412;-75
2023/08/05 05:01:06;;;;;;;5.65;3.72;;;;;;;23.10;81.25;98733.81;4476313;31;34250;-75
2023/08/05 05:03:34;;;;;;;6.00;3.67;;;;;;;22.96;82.29;98732.31;4471189;31;33792;-74
2023/08/05 05:06:02;;;;;;;6.03;3.70;;;;;;;22.86;83.43;98737.84;4487473;31;34412;-73
2023/08/05 05:08:31;;;;;;;7.00;4.20;;;;;;;22.93;83.45;98740.34;4495092;31;33767;-74
2023/08/05 05:10:59;;;;;;;6.62;4.37;;;;;;;22.99;83.51;98744.59;4492501;31;34197;-74
2023/08/05 05:13:26;;;;;;;6.20;4.32;;;;;;;23.26;82.26;98756.34;4490597;31;33721;-73
2023/08/05 05:15:54;;;;;;;7.07;4.80;;;;;;;23.25;82.86;98751.09;4486104;31;34371;-74
2023/08/05 05:18:21;;;;;;;8.37;4.40;;;;;;;23.25;83.25;98730.81;4485569;31;34397;-74
2023/08/05 05:20:54;;;;;;;7.55;4.57;;;;;;;23.33;83.15;98739.44;4486848;31;33528;-74
2023/08/05 05:23:22;;;;;;;9.40;5.12;;;;;;;23.46;82.83;98723.28;4485885;31;32644;-73
2023/08/05 05:26:08;;;;;;;7.73;5.00;;;;;;;23.62;83.06;98719.31;4487284;31;32224;-73
2023/08/05 05:28:36;;;;;;;8.00;5.00;;;;;;;23.71;82.45;98721.75;4487955;31;33126;-73
2023/08/05 05:31:03;;;;;;;6.80;4.90;;;;;;;23.65;82.89;98724.56;4482150;31;33294;-73
2023/08/05 05:33:31;;;;;;;7.72;5.03;;;;;;;23.61;83.50;98722.91;4487329;31;33122;-75
2023/08/05 05:35:59;;;;;;;8.15;4.65;;;;;;;23.67;83.44;98717.44;4490785;31;33565;-74
2023/08/05 05:38:26;;;;;;;7.87;4.97;;;;;;;23.68;83.37;98716.56;4494777;31;33760;-74
2023/08/05 05:40:54;;;;;;;7.30;5.03;;;;;;;23.76;82.53;98711.06;4485803;31;34068;-73
2023/08/05 05:43:22;;;;;;;7.82;5.10;;;;;;;23.82;82.51;98718.00;4493030;31;33067;-75
2023/08/05 05:45:53;;;;;;;8.40;4.97;;;;;;;23.85;82.71;98718.75;4491181;31;34435;-74
2023/08/05 05:48:20;;;;;;;9.05;5.50;;;;;;;23.87;82.62;98708.16;4490908;31;33674;-73
2023/08/05 05:50:52;;;;;;;8.02;5.50;;;;;;;23.88;83.06;98715.19;4484204;31;34424;-74
2023/08/05 05:53:19;;;;;;;7.18;5.45;;;;;;;23.99;82.61;98717.53;4469558;32;31504;-73
2023/08/05 05:55:50;;;;;;;7.62;5.53;;;;;;;24.03;82.96;98730.66;4482886;31;34010;-74
2023/08/05 05:58:18;;;;;;;8.32;5.35;;;;;;;24.09;82.06;98727.84;4492483;31;33547;-74
2023/08/05 06:00:45;;;;;;;7.85;5.30;;;;;;;24.14;81.80;98728.59;4488584;31;34120;-75
2023/08/05 06:03:13;;;;;;;8.10;6.05;;;;;;;24.28;81.33;98717.59;4487643;31;34691;-73
2023/08/05 06:05:41;;;;;;;7.53;5.90;;;;;;;24.38;81.07;98728.81;4493738;31;33731;-74
2023/08/05 06:08:08;;;;;;;7.00;5.53;;;;;;;24.47;81.29;98727.66;4488573;31;33499;-74
2023/08/05 06:10:37;;;;;;;8.00;5.85;;;;;;;24.47;81.77;98725.91;4495622;31;33778;-73
2023/08/05 06:13:05;;;;;;;7.25;5.70;;;;;;;24.57;81.84;98720.34;4495899;31;33456;-74
2023/08/05 06:15:32;;;;;;;8.85;5.95;;;;;;;24.67;81.43;98724.47;4494396;31;33852;-73
2023/08/05 06:18:00;;;;;;;7.35;5.65;;;;;;;24.72;81.55;98723.41;4492281;31;34615;-75
2023/08/05 06:20:27;;;;;;;6.00;5.00;;;;;;;24.79;81.06;98720.59;4486692;31;33645;-77
2023/08/05 06:22:55;;;;;;;20.20;5.60;;;;;;;25.05;79.71;98730.34;4477648;31;33314;-74
2023/08/05 06:25:22;;;;;;;9.57;5.10;;;;;;;24.98;76.11;98739.44;4491818;31;33872;-73
2023/08/05 06:27:50;;;;;;;7.97;5.10;;;;;;;25.25;75.66;98735.94;4480293;31;34311;-75
2023/08/05 06:30:18;;;;;;;7.70;4.60;;;;;;;25.23;78.43;98731.62;4488148;31;34511;-74
2023/08/05 06:32:45;;;;;;;10.63;4.75;;;;;;;25.51;76.56;98736.88;4488403;31;33425;-75
2023/08/05 06:35:13;;;;;;;10.25;5.12;;;;;;;25.53;76.99;98732.38;4498314;31;33476;-76
2023/08/05 06:37:40;;;;;;;9.20;4.95;;;;;;;25.68;75.65;98718.59;4493413;31;34710;-74
2023/08/05 06:40:08;;;;;;;7.20;4.47;;;;;;;25.73;75.92;98720.22;4485804;31;33368;-74
2023/08/05 06:42:36;;;;;;;8.40;5.05;;;;;;;26.01;74.63;98721.03;4487825;31;33262;-74
2023/08/05 06:45:04;;;;;;;6.95;4.43;;;;;;;26.09;75.21;98728.72;4489750;31;34152;-77
2023/08/05 06:47:32;;;;;;;9.15;4.75;;;;;;;26.23;74.12;98720.25;4487387;31;33723;-74
2023/08/05 06:50:01;;;;;;;6.57;3.90;;;;;;;26.33;74.04;98721.66;4488836;31;34043;-76
2023/08/05 06:52:29;;;;;;;5.85;3.58;;;;;;;26.39;73.37;98729.41;4489601;31;32938;-73
2023/08/05 06:55:00;;;;;;;5.80;3.70;;;;;;;26.81;72.11;98730.50;4476952;31;33593;-74
2023/08/05 06:57:28;;;;;;;5.77;3.73;;;;;;;26.65;71.64;98727.59;4491545;31;34149;-75
2023/08/05 06:59:55;;;;;;;6.47;3.50;;;;;;;26.85;69.92;98725.03;4484906;31;34035;-74
2023/08/05 07:02:24;;;;;;;5.50;3.90;;;;;;;27.05;67.92;98747.31;4492984;31;34511;-74
2023/08/05 07:04:53;;;;;;;6.32;4.22;;;;;;;27.04;67.81;98740.25;4491306;31;34377;-74
2023/08/05 07:07:20;;;;;;;7.68;3.78;;;;;;;26.80;69.82;98742.94;4485444;31;33608;-76
2023/08/05 07:09:48;;;;;;;6.27;3.77;;;;;;;27.10;68.35;98742.69;4487527;31;33810;-75
2023/08/05 07:12:16;;;;;;;7.50;4.03;;;;;;;27.25;68.36;98734.13;4481051;31;34261;-73
2023/08/05 07:14:45;;;;;;;6.12;4.20;;;;;;;27.48;66.64;98745.59;4487423;31;33845;-75
2023/08/05 07:17:14;;;;;;;6.53;4.30;;;;;;;27.42;67.54;98753.84;4489851;31;33580;-75
2023/08/05 07:19:42;;;;;;;7.53;4.57;;;;;;;27.30;68.14;98762.31;4485013;31;34490;-76
2023/08/05 07:22:09;;;;;;;6.07;4.43;;;;;;;27.65;66.35;98759.06;4491132;31;33368;-75
2023/08/05 07:24:37;;;;;;;6.68;4.43;;;;;;;27.42;66.96;98761.81;4487155;31;33585;-78
2023/08/05 07:27:04;;;;;;;7.65;4.60;;;;;;;27.61;66.76;98752.16;4486961;31;32759;-75
2023/08/05 07:29:32;;;;;;;7.78;5.00;;;;;;;27.44;67.51;98746.66;4486600;31;33819;-74
2023/08/05 07:32:00;;;;;;;7.25;4.75;;;;;;;27.51;67.29;98734.84;4487384;31;33994;-75
2023/08/05 07:34:31;;;;;;;6.10;4.72;;;;;;;27.78;67.14;98731.97;4479927;31;33936;-74
2023/08/05 07:36:59;;;;;;;7.37;4.43;;;;;;;27.91;67.32;98738.53;4485013;31;32758;-75
2023/08/05 07:39:33;;;;;;;6.65;4.68;;;;;;;28.22;65.96;98742.47;4486889;31;34536;-74
2023/08/05 07:42:02;;;;;;;7.43;5.00;;;;;;;28.59;64.66;98743.53;4489305;31;33035;-75
2023/08/05 07:44:33;;;;;;;8.70;5.10;;;;;;;28.36;64.52;98739.22;4488867;31;34413;-75
2023/08/05 07:47:00;;;;;;;7.50;5.20;;;;;;;28.54;63.59;98726.91;4486845;31;32745;-77
2023/08/05 07:49:28;;;;;;;8.10;5.20;;;;;;;28.53;64.11;98735.81;4489963;31;33855;-76
2023/08/05 07:51:56;;;;;;;7.15;5.25;;;;;;;28.65;62.39;98729.94;4492696;31;34247;-74
2023/08/05 07:54:24;;;;;;;7.53;5.70;;;;;;;28.87;62.38;98728.94;4490073;31;34265;-74
2023/08/05 07:56:52;;;;;;;7.43;5.25;;;;;;;28.89;61.68;98737.72;4490858;31;34182;-74
2023/08/05 07:59:20;;;;;;;7.18;5.20;;;;;;;29.03;62.15;98740.56;4479698;31;33019;-75
2023/08/05 08:01:49;;;;;;;7.55;5.53;;;;;;;29.04;61.15;98736.97;4488404;31;33165;-76
2023/08/05 08:04:17;;;;;;;7.82;5.03;;;;;;;29.35;60.00;98741.72;4490454;31;33288;-74
2023/08/05 08:06:45;;;;;;;6.93;5.00;;;;;;;29.37;59.22;98728.31;4488720;31;34675;-78
2023/08/05 08:09:13;;;;;;;6.57;5.20;;;;;;;29.52;58.74;98724.88;4486397;31;34604;-75
2023/08/05 08:11:41;;;;;;;7.40;5.20;;;;;;;29.26;61.20;98735.97;4486284;31;32951;-74
2023/08/05 08:14:08;;;;;;;7.93;5.00;;;;;;;29.43;60.67;98737.81;4487111;31;33486;-74
2023/08/05 08:16:36;;;;;;;6.43;4.80;;;;;;;29.75;59.04;98749.59;4489356;31;33948;-75
2023/08/05 08:19:05;;;;;;;8.23;5.18;;;;;;;29.56;59.35;98750.47;4489607;31;34583;-74
2023/08/05 08:21:33;;;;;;;7.55;4.78;;;;;;;29.18;59.59;98747.88;4490075;31;33941;-74
2023/08/05 08:24:00;;;;;;;6.37;5.03;;;;;;;29.27;60.18;98753.72;4489748;31;33790;-74
2023/08/05 08:26:28;;;;;;;7.30;5.07;;;;;;;29.29;59.76;98751.84;4481157;31;32215;-75
2023/08/05 08:28:56;;;;;;;6.75;5.20;;;;;;;29.09;60.78;98758.97;4483426;31;33915;-75
2023/08/05 08:31:29;;;;;;;6.80;5.35;;;;;;;28.98;62.07;98763.94;4485595;31;33260;-75
2023/08/05 08:33:57;;;;;;;6.68;5.25;;;;;;;29.05;61.22;98770.69;4490854;31;32804;-76
2023/08/05 08:36:25;;;;;;;7.40;5.37;;;;;;;29.05;60.97;98776.03;4491133;31;34469;-75
2023/08/05 08:38:53;;;;;;;7.95;5.35;;;;;;;28.58;62.56;98787.09;4489194;31;34354;-77
2023/08/05 08:41:21;;;;;;;7.70;5.28;;;;;;;28.76;63.13;98786.28;4475367;31;33427;-74
2023/08/05 08:43:49;;;;;;;8.23;5.45;;;;;;;28.63;62.98;98783.28;4491658;31;32763;-75
2023/08/05 08:46:18;;;;;;;8.70;5.57;;;;;;;28.87;62.96;98787.56;4488900;31;35188;-76
2023/08/05 08:48:48;;;;;;;7.90;5.40;;;;;;;28.82;62.92;98793.97;4475096;31;33331;-75
2023/08/05 08:51:19;;;;;;;8.07;5.73;;;;;;;28.73;63.27;98793.53;4493761;31;32678;-76
2023/08/05 08:53:48;;;;;;;8.00;5.30;;;;;;;28.90;61.96;98792.75;4487476;31;33537;-75
2023/08/05 08:56:15;;;;;;;6.90;5.70;;;;;;;28.98;61.74;98787.94;4471967;31;33029;-76
2023/08/05 08:58:43;;;;;;;8.70;5.70;;;;;;;28.79;63.38;98790.59;4475875;31;33512;-75
2023/08/05 09:01:12;;;;;;;8.77;6.20;;;;;;;28.81;63.23;98784.22;4490259;31;33173;-76
2023/08/05 09:03:42;;;;;;;9.45;6.37;;;;;;;29.01;61.85;98786.00;4471577;32;34291;-76
2023/08/05 09:06:09;;;;;;;8.00;5.80;;;;;;;29.04;62.15;98782.31;4493317;31;34418;-75
2023/08/05 09:08:37;;;;;;;8.15;6.30;;;;;;;28.78;62.92;98783.50;4469822;32;33590;-75
2023/08/05 09:11:04;;;;;;;9.77;6.97;;;;;;;28.97;61.93;98779.03;4485854;31;33085;-75
2023/08/05 09:13:32;;;;;;;9.80;7.80;;;;;;;28.82;62.55;98780.66;4494742;31;33824;-75
2023/08/05 09:16:00;;;;;;;10.27;7.95;;;;;;;28.81;62.74;98783.38;4483780;31;33636;-75
2023/08/05 09:18:31;;;;;;;10.45;8.63;;;;;;;29.01;62.41;98778.00;4471065;31;35063;-75
2023/08/05 09:20:59;;;;;;;9.48;8.20;;;;;;;28.84;62.84;98775.25;4478063;31;32913;-75
2023/08/05 09:23:27;;;;;;;11.10;9.10;;;;;;;28.78;63.02;98765.75;4489889;31;33512;-75
2023/08/05 09:25:54;;;;;;;9.73;8.07;;;;;;;28.94;62.55;98767.69;4485657;31;34744;-75
2023/08/05 09:28:30;;;;;;;9.23;8.00;;;;;;;28.66;63.37;98774.28;4475806;31;33624;-75
2023/08/05 09:31:16;;;;;;;10.10;8.80;;;;;;;28.78;63.05;98773.72;4488347;31;31465;-76
2023/08/05 09:33:44;;;;;;;10.53;9.23;;;;;;;28.62;63.96;98772.69;4489431;31;32995;-78
2023/08/05 09:36:12;;;;;;;12.02;9.45;;;;;;;28.63;63.94;98769.13;4483165;31;33440;-77
2023/08/05 09:38:41;;;;;;;10.48;9.38;;;;;;;28.72;63.79;98771.31;4490637;31;33804;-75
2023/08/05 09:41:09;;;;;;;9.82;8.80;;;;;;;28.75;63.96;98768.53;4488630;31;32903;-76
2023/08/05 09:43:43;;;;;;;12.10;9.77;;;;;;;28.87;63.25;98771.56;4492021;31;33833;-75
2023/08/05 09:46:13;;;;;;;12.45;10.35;;;;;;;28.60;64.30;98774.56;4487690;31;34018;-78
2023/08/05 09:48:43;;;;;;;13.40;11.48;;;;;;;28.75;64.15;98768.53;4491404;31;33643;-77
2023/08/05 09:51:14;;;;;;;13.10;10.45;;;;;;;28.60;65.94;98763.91;4491472;31;33138;-78
2023/08/05 09:53:43;;;;;;;13.18;11.77;;;;;;;28.77;63.72;98758.66;4491937;31;34130;-75
2023/08/05 09:56:12;;;;;;;12.88;11.05;;;;;;;28.72;65.04;98758.00;4484822;31;33806;-75
2023/08/05 09:58:40;;;;;;;12.98;11.57;;;;;;;28.96;64.30;98764.00;4492928;31;34231;-75
2023/08/05 10:01:08;;;;;;;14.18;11.93;;;;;;;28.75;65.36;98763.22;4470554;31;33271;-75
2023/08/05 10:03:37;;;;;;;13.60;11.63;;;;;;;29.04;64.75;98763.66;4484767;31;33765;-75
2023/08/05 10:06:09;;;;;;;14.18;12.60;;;;;;;29.27;63.23;98770.56;4488895;31;33634;-75
2023/08/05 10:08:36;;;;;;;13.32;11.93;;;;;;;29.56;63.05;98771.81;4487144;31;33294;-76
2023/08/05 10:11:05;;;;;;;14.60;13.00;;;;;;;29.18;63.15;98777.19;4470659;31;33401;-75
2023/08/05 10:13:37;;;;;;;13.68;12.27;;;;;;;29.09;64.55;98772.31;4487042;31;35898;-75
2023/08/05 10:16:09;;;;;;;16.73;12.73;;;;;;;29.39;62.94;98779.78;4476766;31;33268;-75
2023/08/05 10:18:37;;;;;;;14.20;12.70;;;;;;;29.31;62.59;98776.63;4492949;31;32556;-75
2023/08/05 10:21:08;;;;;;;13.77;12.37;;;;;;;29.46;61.89;98781.22;4474570;31;32526;-74
2023/08/05 10:23:36;;;;;;;14.82;12.90;;;;;;;29.32;63.18;98781.00;4483611;31;33496;-74
2023/08/05 10:26:05;;;;;;;14.98;13.30;;;;;;;29.21;63.12;98782.41;4489343;31;33460;-76
2023/08/05 10:28:35;;;;;;;15.98;13.77;;;;;;;29.35;63.34;98772.88;4488062;31;34362;-75
2023/08/05 10:31:05;;;;;;;16.17;12.90;;;;;;;29.31;62.89;98764.16;4491729;31;34095;-75
2023/08/05 10:34:11;;;;;;;15.07;13.57;;;;;;;29.39;62.58;98759.31;4489736;31;34034;-76
2023/08/05 10:36:45;;;;;;;16.20;13.30;;;;;;;29.63;62.41;98768.84;4489627;31;33085;-78
2023/08/05 10:39:41;;;;;;;17.58;14.68;;;;;;;29.36;62.62;98772.81;4488322;31;33044;-78
2023/08/05 10:42:27;;;;;;;16.33;14.30;;;;;;;29.27;63.18;98772.38;4487217;31;33163;-78
2023/08/05 10:45:01;;;;;;;17.42;14.35;;;;;;;29.37;62.82;98771.00;4494005;31;33637;-78
2023/08/05 10:47:29;;;;;;;16.60;14.90;;;;;;;29.45;62.43;98758.13;4480298;31;33266;-78
2023/08/05 10:49:58;;;;;;;17.23;15.02;;;;;;;29.35;62.85;98763.06;4484015;31;34143;-78
2023/08/05 10:52:28;;;;;;;18.08;15.65;;;;;;;29.38;63.40;98768.25;4477763;31;32855;-78
2023/08/05 10:54:57;;;;;;;16.30;14.48;;;;;;;29.60;61.85;98776.06;4489750;31;34583;-78
2023/08/05 10:57:29;;;;;;;18.75;16.58;;;;;;;29.57;62.30;98762.88;4477489;31;34323;-78
2023/08/05 10:59:58;;;;;;;17.77;15.88;;;;;;;29.57;62.30;98762.88;4487323;31;33715;-77
2023/08/05 11:02:26;;;;;;;18.58;16.67;;;;;;;29.71;61.76;98758.63;4490032;31;33519;-77
2023/08/05 11:05:12;;;;;;;18.37;16.48;;;;;;;29.83;61.25;98762.53;4484677;31;33751;-77
2023/08/05 11:07:42;;;;;;;18.10;16.20;;;;;;;29.50;62.05;98761.44;4476038;31;32859;-77
2023/08/05 11:10:11;;;;;;;18.73;16.70;;;;;;;29.56;61.89;98766.47;4483310;31;34448;-77
2023/08/05 11:12:39;;;;;;;19.17;17.20;;;;;;;29.49;62.04;98761.53;4483172;31;33928;-75
2023/08/05 11:15:08;;;;;;;20.92;18.33;;;;;;;29.42;62.36;98755.62;4488483;31;33695;-75
2023/08/05 11:17:55;;;;;;;20.20;18.10;;;;;;;29.39;63.50;98758.44;4481179;31;34064;-75
2023/08/05 11:20:33;;;;;;;19.15;17.20;;;;;;;29.31;64.75;98757.97;4469928;31;32646;-75
2023/08/05 11:23:01;;;;;;;19.00;17.08;;;;;;;29.51;64.14;98759.63;4483303;31;32427;-75
2023/08/05 11:25:29;;;;;;;18.75;16.85;;;;;;;29.63;64.25;98761.69;4499176;31;33567;-75
2023/08/05 11:27:57;;;;;;;18.27;16.45;;;;;;;29.39;63.58;98774.44;4485269;31;33731;-75
2023/08/05 11:30:25;;;;;;;20.60;16.05;;;;;;;29.62;64.15;98775.13;4494657;31;34537;-75
2023/08/05 11:32:58;;;;;;;16.67;14.98;;;;;;;29.84;63.92;98773.13;4485423;31;34068;-75
2023/08/05 11:35:26;;;;;;;15.48;13.88;;;;;;;29.78;63.74;98770.78;4493655;31;33478;-75
2023/08/05 11:37:54;;;;;;;15.52;13.85;;;;;;;30.01;62.31;98766.94;4486093;31;33517;-75